createdAt,value
2023-03-07T00:01:30.774Z,3.20
2023-03-07T00:03:58.882Z,3.20
2023-03-07T00:06:26.182Z,3.20
2023-03-07T00:08:55.662Z,3.20
2023-03-07T00:16:18.963Z,3.20
2023-03-07T00:21:14.934Z,3.30
2023-03-07T00:23:43.346Z,3.20
2023-03-07T00:26:19.036Z,3.20
2023-03-07T00:28:47.540Z,3.30
2023-03-07T00:31:14.733Z,3.30
2023-03-07T00:36:20.215Z,3.20
2023-03-07T00:38:47.129Z,3.20
2023-03-07T00:41:25.424Z,3.20
2023-03-07T00:43:53.258Z,3.30
2023-03-07T00:46:21.295Z,3.30
2023-03-07T00:48:48.712Z,3.30
2023-03-07T00:51:18.834Z,3.30
2023-03-07T01:01:07.544Z,3.20
2023-03-07T01:03:35.276Z,3.30
2023-03-07T01:06:06.827Z,3.20
2023-03-07T01:08:34.543Z,3.20
2023-03-07T01:11:03.529Z,3.20
2023-03-07T01:13:31.303Z,3.20
2023-03-07T01:16:27.448Z,3.20
2023-03-07T01:18:59.819Z,3.20
2023-03-07T01:21:33.159Z,3.20
2023-03-07T01:24:03.009Z,3.00
2023-03-07T01:26:32.084Z,3.20
2023-03-07T01:29:01.680Z,3.20
2023-03-07T01:31:30.597Z,3.20
2023-03-07T01:36:30.510Z,3.30
2023-03-07T01:39:14.733Z,3.30
2023-03-07T01:44:27.691Z,3.40
2023-03-07T01:46:56.241Z,3.40
2023-03-07T01:52:06.395Z,3.50
2023-03-07T01:54:40.518Z,4.60
2023-03-07T01:57:07.996Z,3.40
2023-03-07T01:59:40.307Z,3.50
2023-03-07T02:02:14.244Z,3.40
2023-03-07T02:05:06.510Z,3.50
2023-03-07T02:07:38.853Z,3.60
2023-03-07T02:10:06.743Z,3.60
2023-03-07T02:12:33.889Z,3.60
2023-03-07T02:15:01.426Z,3.60
2023-03-07T02:20:26.416Z,3.60
2023-03-07T02:22:54.625Z,3.50
2023-03-07T02:26:02.936Z,3.50
2023-03-07T02:28:29.973Z,3.50
2023-03-07T02:31:03.589Z,3.50
2023-03-07T02:36:12.887Z,3.60
2023-03-07T02:38:48.596Z,3.60
2023-03-07T02:41:18.745Z,3.60
2023-03-07T03:18:09.194Z,3.80
2023-03-07T03:23:04.459Z,3.90
2023-03-07T03:25:31.368Z,3.80
2023-03-07T03:30:28.189Z,3.70
2023-03-07T03:35:23.084Z,3.80
2023-03-07T03:42:46.316Z,3.90
2023-03-07T03:45:15.094Z,3.90
2023-03-07T03:50:10.232Z,3.80
2023-03-07T03:55:04.671Z,3.80
2023-03-07T04:02:26.623Z,3.90
2023-03-07T04:07:20.476Z,3.80
2023-03-07T04:12:14.383Z,3.80
2023-03-07T04:31:58.411Z,4.10
2023-03-07T04:56:37.936Z,4.10
2023-03-07T05:06:27.427Z,4.10
2023-03-07T05:21:15.214Z,4.10
2023-03-07T05:31:05.585Z,4.00
2023-03-07T05:33:33.075Z,4.10
2023-03-07T05:36:01.165Z,4.00
2023-03-07T05:53:13.383Z,4.20
2023-03-07T05:55:40.192Z,4.20
2023-03-07T05:58:07.224Z,4.10
2023-03-07T06:03:04.714Z,4.00
2023-03-07T06:12:54.789Z,4.00
2023-03-07T06:15:24.337Z,4.00
2023-03-07T06:22:50.142Z,4.00
2023-03-07T06:30:12.340Z,3.90
2023-03-07T06:32:39.621Z,3.90
2023-03-07T06:35:07.122Z,3.90
2023-03-07T06:45:02.553Z,3.90
2023-03-07T06:52:24.256Z,4.00
2023-03-07T07:02:14.898Z,4.10
2023-03-07T07:34:18.644Z,4.40
2023-03-07T07:39:15.128Z,4.40
2023-03-07T07:44:12.908Z,4.30
2023-03-07T07:49:19.203Z,4.30
2023-03-07T07:56:41.303Z,4.20
2023-03-07T07:59:08.137Z,4.10
2023-03-07T08:11:23.986Z,4.00
2023-03-07T08:16:20.436Z,4.00
2023-03-07T08:18:52.523Z,4.00
2023-03-07T08:23:46.525Z,4.00
2023-03-07T08:28:41.827Z,3.90
2023-03-07T08:31:17.202Z,3.90
2023-03-07T08:33:45.908Z,3.80
2023-03-07T08:41:08.287Z,3.70
2023-03-07T08:43:36.617Z,3.70
2023-03-07T09:08:08.320Z,3.60
2023-03-07T09:10:36.364Z,3.60
2023-03-07T09:30:15.253Z,3.50
2023-03-07T09:32:42.311Z,3.50
2023-03-07T09:35:10.244Z,3.50
2023-03-07T09:37:37.377Z,3.50
2023-03-07T09:40:07.548Z,3.50
2023-03-07T09:43:05.492Z,3.50
2023-03-07T09:48:35.785Z,3.60
2023-03-07T09:51:44.253Z,3.60
2023-03-07T09:54:28.437Z,3.50
2023-03-07T09:56:59.680Z,3.60
2023-03-07T09:59:38.050Z,3.60
2023-03-07T10:02:23.499Z,3.50
2023-03-07T10:05:11.585Z,3.70
2023-03-07T10:07:38.288Z,3.70
2023-03-07T10:10:07.420Z,3.70
2023-03-07T10:13:04.500Z,3.70
2023-03-07T10:15:57.399Z,3.70
2023-03-07T10:18:53.250Z,3.60
2023-03-07T10:21:35.175Z,3.60
2023-03-07T10:26:51.135Z,3.70
2023-03-07T10:29:22.213Z,3.70
2023-03-07T10:31:55.123Z,3.60
2023-03-07T10:34:31.338Z,3.60
2023-03-07T10:37:13.310Z,3.60
2023-03-07T10:39:50.097Z,3.60
2023-03-07T10:42:19.126Z,3.60
2023-03-07T10:44:49.004Z,3.60
2023-03-07T10:47:24.956Z,3.60
2023-03-07T10:49:56.305Z,3.70
2023-03-07T10:52:35.208Z,3.70
2023-03-07T10:55:29.436Z,3.60
2023-03-07T10:58:11.969Z,3.60
2023-03-07T11:00:38.634Z,3.60
2023-03-07T11:05:34.342Z,3.50
2023-03-07T11:08:36.064Z,3.40
2023-03-07T11:11:04.821Z,3.30
2023-03-07T11:13:31.774Z,3.20
2023-03-07T11:16:19.038Z,3.10
2023-03-07T11:21:33.110Z,3.00
2023-03-07T11:24:19.986Z,3.10
2023-03-07T11:26:46.628Z,3.10
2023-03-07T11:29:14.710Z,3.10
2023-03-07T11:32:06.425Z,3.20
2023-03-07T11:34:59.323Z,3.20
2023-03-07T11:37:39.021Z,3.00
2023-03-07T11:40:29.451Z,2.90
2023-03-07T11:43:01.639Z,2.80
2023-03-07T11:45:36.555Z,2.80
2023-03-07T11:48:36.093Z,2.80
2023-03-07T11:51:04.590Z,2.90
2023-03-07T11:53:42.890Z,2.90
2023-03-07T11:56:19.892Z,2.90
2023-03-07T12:01:26.595Z,3.10
2023-03-07T12:04:20.812Z,3.10
2023-03-07T12:07:06.156Z,3.10
2023-03-07T12:09:48.760Z,3.10
2023-03-07T12:12:46.191Z,3.10
2023-03-07T12:15:37.665Z,3.10
2023-03-07T12:23:18.225Z,3.20
2023-03-07T12:25:57.190Z,3.20
2023-03-07T12:28:43.798Z,3.20
2023-03-07T12:31:30.898Z,3.10
2023-03-07T12:34:20.226Z,3.10
2023-03-07T12:36:53.338Z,3.10
2023-03-07T12:39:33.090Z,3.00
2023-03-07T12:42:37.812Z,3.00
2023-03-07T12:45:12.667Z,3.00
2023-03-07T12:50:06.845Z,2.90
2023-03-07T12:53:01.268Z,3.00
2023-03-07T12:58:25.386Z,3.00
2023-03-07T13:00:58.035Z,3.00
2023-03-07T13:03:56.438Z,3.00
2023-03-07T13:06:24.209Z,2.90
2023-03-07T13:08:55.288Z,2.80
2023-03-07T13:11:24.842Z,2.20
2023-03-07T13:13:57.076Z,2.70
2023-03-07T13:16:43.606Z,2.70
2023-03-07T13:19:35.695Z,2.80
2023-03-07T13:22:22.636Z,2.90
2023-03-07T13:24:53.931Z,3.00
2023-03-07T13:27:27.180Z,3.10
2023-03-07T13:30:11.722Z,3.10
2023-03-07T13:32:56.573Z,3.00
2023-03-07T13:35:32.068Z,2.80
2023-03-07T13:40:28.882Z,2.60
2023-03-07T13:45:37.741Z,2.50
2023-03-07T13:48:05.886Z,2.50
2023-03-07T13:50:35.300Z,2.40
2023-03-07T13:53:04.075Z,2.30
2023-03-07T13:55:41.142Z,2.30
2023-03-07T13:58:33.526Z,2.30
2023-03-07T14:01:14.664Z,2.30
2023-03-07T14:03:46.892Z,2.30
2023-03-07T14:06:33.932Z,2.40
2023-03-07T14:11:47.864Z,2.50
2023-03-07T14:14:38.703Z,2.40
2023-03-07T14:20:00.578Z,2.30
2023-03-07T14:22:48.925Z,2.40
2023-03-07T14:25:21.426Z,2.40
2023-03-07T14:27:50.693Z,2.30
2023-03-07T14:35:15.300Z,2.30
2023-03-07T14:37:43.893Z,2.30
2023-03-07T14:40:16.058Z,2.40
2023-03-07T14:43:09.647Z,2.40
2023-03-07T14:46:04.323Z,2.40
2023-03-07T14:48:44.451Z,2.10
2023-03-07T14:51:24.114Z,2.20
2023-03-07T14:53:50.728Z,2.20
2023-03-07T14:56:34.746Z,2.20
2023-03-07T14:59:02.900Z,2.30
2023-03-07T15:01:32.020Z,2.30
2023-03-07T15:06:27.943Z,2.40
2023-03-07T15:08:59.107Z,2.40
2023-03-07T15:11:40.272Z,2.50
2023-03-07T15:14:25.845Z,2.50
2023-03-07T15:17:00.318Z,2.30
2023-03-07T15:19:38.432Z,2.40
2023-03-07T15:22:13.928Z,2.50
2023-03-07T15:24:44.969Z,2.50
2023-03-07T15:27:20.780Z,2.50
2023-03-07T15:29:48.452Z,2.60
2023-03-07T15:32:39.561Z,2.60
2023-03-07T15:37:34.075Z,2.60
2023-03-07T15:40:09.615Z,2.70
2023-03-07T15:42:53.743Z,2.70
2023-03-07T15:45:30.988Z,2.70
2023-03-07T15:48:01.266Z,2.60
2023-03-07T15:53:05.999Z,2.50
2023-03-07T15:55:33.184Z,2.50
2023-03-07T15:58:05.200Z,2.50
2023-03-07T16:00:38.201Z,2.50
2023-03-07T16:03:27.995Z,2.50
2023-03-07T16:05:56.157Z,2.40
2023-03-07T16:10:59.291Z,2.40
2023-03-07T16:13:38.888Z,2.50
2023-03-07T16:16:22.253Z,2.50
2023-03-07T16:18:49.502Z,2.50
2023-03-07T16:21:17.214Z,2.50
2023-03-07T16:23:44.695Z,2.40
2023-03-07T16:26:16.154Z,2.30
2023-03-07T16:31:13.106Z,2.30
2023-03-07T16:33:39.991Z,2.30
2023-03-07T16:43:36.645Z,2.30
2023-03-07T16:46:09.921Z,2.60
2023-03-07T16:55:58.916Z,2.50
2023-03-07T16:58:29.498Z,2.50
2023-03-07T17:00:58.884Z,2.50
2023-03-07T17:03:26.574Z,2.50
2023-03-07T17:13:17.489Z,2.70
2023-03-07T17:20:41.424Z,2.70
2023-03-07T17:23:08.370Z,2.80
2023-03-07T17:28:10.575Z,2.80
2023-03-07T17:30:37.154Z,2.80
2023-03-07T17:42:54.652Z,2.90
2023-03-07T17:45:21.872Z,2.90
2023-03-07T17:47:53.853Z,2.90
2023-03-07T17:50:23.760Z,2.90
2023-03-07T17:52:54.749Z,2.90
2023-03-07T17:55:24.731Z,2.80
2023-03-07T18:00:20.972Z,2.80
2023-03-07T18:02:48.385Z,2.80
2023-03-07T18:05:15.156Z,2.80
2023-03-07T18:10:10.146Z,2.70
2023-03-07T18:12:39.027Z,2.80
2023-03-07T18:15:13.014Z,2.80
2023-03-07T18:22:42.567Z,2.80
2023-03-07T18:25:11.953Z,2.80
2023-03-07T18:30:06.283Z,2.80
2023-03-07T18:37:28.708Z,2.80
2023-03-07T18:39:55.534Z,2.80
2023-03-07T18:52:10.628Z,2.70
2023-03-07T19:04:30.222Z,2.70
2023-03-07T19:06:58.015Z,2.70
2023-03-07T19:09:26.109Z,2.70
2023-03-07T19:11:53.403Z,2.70
2023-03-07T19:16:47.200Z,2.70
2023-03-07T19:24:11.270Z,2.70
2023-03-07T19:31:33.019Z,2.80
2023-03-07T19:34:02.890Z,2.70
2023-03-07T19:36:32.012Z,2.70
2023-03-07T19:41:28.248Z,2.70
2023-03-07T19:43:59.103Z,2.70
2023-03-07T19:46:26.073Z,2.70
2023-03-07T19:51:22.538Z,2.60
2023-03-07T19:56:27.991Z,2.70
2023-03-07T19:58:55.445Z,2.80
2023-03-07T20:01:23.069Z,2.70
2023-03-07T20:06:20.211Z,2.60
2023-03-07T20:08:52.050Z,2.60
2023-03-07T20:11:21.862Z,2.60
2023-03-07T20:16:17.319Z,2.60
2023-03-07T20:18:44.419Z,2.60
2023-03-07T20:21:13.469Z,2.50
2023-03-07T20:26:12.538Z,2.40
2023-03-07T20:31:10.543Z,2.40
2023-03-07T20:33:38.826Z,2.30
2023-03-07T20:36:07.257Z,2.30
2023-03-07T20:38:35.301Z,2.20
2023-03-07T20:41:04.631Z,2.20
2023-03-07T20:43:32.526Z,2.30
2023-03-07T20:46:07.726Z,2.30
2023-03-07T20:48:35.288Z,2.30
2023-03-07T20:51:18.350Z,2.30
2023-03-07T20:53:46.343Z,2.30
2023-03-07T20:58:40.051Z,2.20
2023-03-07T21:01:06.918Z,2.10
2023-03-07T21:03:33.920Z,2.20
2023-03-07T21:06:02.341Z,2.20
2023-03-07T21:08:31.034Z,2.20
2023-03-07T21:11:05.638Z,2.20
2023-03-07T21:13:34.940Z,2.20
2023-03-07T21:16:11.091Z,2.30
2023-03-07T21:21:10.476Z,2.20
2023-03-07T21:23:37.416Z,2.20
2023-03-07T21:26:05.862Z,2.20
2023-03-07T21:28:34.185Z,2.30
2023-03-07T21:31:02.679Z,2.30
2023-03-07T21:33:30.264Z,2.40
2023-03-07T21:48:13.770Z,2.40
2023-03-07T21:50:44.408Z,2.40
2023-03-07T21:55:39.080Z,2.40
2023-03-07T22:02:59.997Z,2.40
2023-03-07T22:07:53.679Z,2.30
2023-03-07T22:10:20.318Z,2.20
2023-03-07T22:12:49.072Z,2.30
2023-03-07T22:20:10.859Z,2.40
2023-03-07T22:22:37.705Z,2.30
2023-03-07T22:27:32.163Z,2.40
2023-03-07T22:39:48.215Z,2.30
2023-03-07T22:59:24.353Z,2.10
2023-03-07T23:04:18.776Z,2.20
2023-03-07T23:14:07.013Z,2.30
2023-03-07T23:19:03.333Z,2.40
2023-03-07T23:21:32.176Z,2.40
2023-03-07T23:23:59.643Z,2.30
2023-03-07T23:26:29.625Z,2.30
2023-03-07T23:31:26.834Z,2.30
2023-03-07T23:33:58.257Z,2.20
2023-03-07T23:36:26.690Z,2.30
2023-03-07T23:38:53.692Z,2.30
2023-03-07T23:43:55.947Z,2.30
2023-03-07T23:46:23.565Z,2.30
2023-03-07T23:56:12.599Z,2.10
2023-03-07T23:58:39.487Z,2.20
